createdAt,value
2018-06-04T00:00:26.564Z,100891.00
2018-06-04T00:02:55.860Z,100894.00
2018-06-04T00:05:25.175Z,100892.00
2018-06-04T00:07:54.422Z,100887.00
2018-06-04T00:10:23.660Z,100884.00
2018-06-04T00:12:52.881Z,100880.00
2018-06-04T00:15:22.124Z,100883.00
2018-06-04T00:17:51.293Z,100884.00
2018-06-04T00:20:20.588Z,100882.00
2018-06-04T00:22:49.843Z,100873.00
2018-06-04T00:25:19.150Z,100882.00
2018-06-04T00:27:48.424Z,100884.00
2018-06-04T00:30:17.719Z,100882.00
2018-06-04T00:32:46.881Z,100870.00
2018-06-04T00:35:16.208Z,100872.00
2018-06-04T00:37:45.484Z,100877.00
2018-06-04T00:40:14.670Z,100874.00
2018-06-04T00:42:43.977Z,100872.00
2018-06-04T00:45:13.202Z,100871.00
2018-06-04T00:47:42.461Z,100879.00
2018-06-04T00:50:11.727Z,100874.00
2018-06-04T00:52:40.926Z,100868.00
2018-06-04T00:55:10.227Z,100862.00
2018-06-04T00:57:39.567Z,100866.00
2018-06-04T01:00:08.873Z,100866.00
2018-06-04T01:02:38.123Z,100864.00
2018-06-04T01:05:07.376Z,100867.00
2018-06-04T01:07:36.652Z,100871.00
2018-06-04T01:10:05.925Z,100871.00
2018-06-04T01:12:35.260Z,100864.00
2018-06-04T01:15:04.659Z,100866.00
2018-06-04T01:17:34.428Z,100861.00
2018-06-04T01:20:04.139Z,100864.00
2018-06-04T01:22:33.490Z,100860.00
2018-06-04T01:25:03.310Z,100864.00
2018-06-04T01:27:32.555Z,100863.00
2018-06-04T01:30:01.957Z,100856.00
2018-06-04T01:32:31.287Z,100859.00
2018-06-04T01:35:00.634Z,100858.00
2018-06-04T01:37:29.905Z,100852.00
2018-06-04T01:39:59.206Z,100851.00
2018-06-04T01:42:28.466Z,100847.00
2018-06-04T01:44:58.354Z,100844.00
2018-06-04T01:47:28.126Z,100848.00
2018-06-04T01:49:57.464Z,100850.00
2018-06-04T01:52:26.764Z,100845.00
2018-06-04T01:54:56.452Z,100852.00
2018-06-04T01:57:25.692Z,100844.00
2018-06-04T01:59:55.633Z,100843.00
2018-06-04T02:02:24.889Z,100836.00
2018-06-04T02:04:54.309Z,100844.00
2018-06-04T02:07:24.140Z,100833.00
2018-06-04T02:09:53.498Z,100837.00
2018-06-04T02:12:22.696Z,100848.00
2018-06-04T02:14:51.925Z,100844.00
2018-06-04T02:17:21.214Z,100839.00
2018-06-04T02:19:50.527Z,100835.00
2018-06-04T02:22:19.833Z,100835.00
2018-06-04T02:24:49.167Z,100837.00
2018-06-04T02:27:18.467Z,100825.00
2018-06-04T02:29:47.673Z,100833.00
2018-06-04T02:32:16.894Z,100830.00
2018-06-04T02:34:46.219Z,100830.00
2018-06-04T02:37:15.527Z,100830.00
2018-06-04T02:39:45.772Z,100822.00
2018-06-04T02:42:15.024Z,100829.00
2018-06-04T02:44:44.309Z,100827.00
2018-06-04T02:47:13.684Z,100681.00
2018-06-04T02:49:42.947Z,100835.00
2018-06-04T02:52:12.228Z,100830.00
2018-06-04T02:54:41.498Z,100831.00
2018-06-04T02:57:11.386Z,100826.00
2018-06-04T02:59:40.622Z,100829.00
2018-06-04T03:02:09.978Z,100830.00
2018-06-04T03:04:39.186Z,100828.00
2018-06-04T03:07:08.460Z,100827.00
2018-06-04T03:09:37.716Z,100817.00
2018-06-04T03:12:07.058Z,100817.00
2018-06-04T03:14:36.338Z,100818.00
2018-06-04T03:17:05.727Z,100814.00
2018-06-04T03:19:35.010Z,100818.00
2018-06-04T03:22:04.282Z,100812.00
2018-06-04T03:24:33.433Z,100812.00
2018-06-04T03:27:02.724Z,100813.00
2018-06-04T03:29:32.057Z,100809.00
2018-06-04T03:32:01.232Z,100811.00
2018-06-04T03:34:30.397Z,100813.00
2018-06-04T03:36:59.612Z,100802.00
2018-06-04T03:39:28.926Z,100797.00
2018-06-04T03:41:58.210Z,100800.00
2018-06-04T03:44:27.355Z,100798.00
2018-06-04T03:46:56.527Z,100788.00
2018-06-04T03:49:25.804Z,100796.00
2018-06-04T03:51:55.084Z,100788.00
2018-06-04T03:54:24.372Z,100792.00
2018-06-04T03:56:53.532Z,100784.00
2018-06-04T03:59:22.746Z,100792.00
2018-06-04T04:01:52.070Z,100790.00
2018-06-04T04:04:21.299Z,100780.00
2018-06-04T04:06:50.579Z,100789.00
2018-06-04T04:09:19.949Z,100782.00
2018-06-04T04:11:49.215Z,100784.00
2018-06-04T04:14:18.538Z,100783.00
2018-06-04T04:16:47.770Z,100785.00
2018-06-04T04:19:17.101Z,100789.00
2018-06-04T04:21:46.362Z,100786.00
2018-06-04T04:24:15.575Z,100783.00
2018-06-04T04:26:44.965Z,100787.00
2018-06-04T04:29:15.127Z,100786.00
2018-06-04T04:31:44.110Z,100780.00
2018-06-04T04:34:13.549Z,100783.00
2018-06-04T04:36:42.883Z,100783.00
2018-06-04T04:39:12.120Z,100784.00
2018-06-04T04:41:41.512Z,100788.00
2018-06-04T04:44:10.834Z,100784.00
2018-06-04T04:46:40.171Z,100784.00
2018-06-04T04:49:09.433Z,100786.00
2018-06-04T04:51:39.742Z,100789.00
2018-06-04T04:54:09.059Z,100786.00
2018-06-04T04:56:38.541Z,100781.00
2018-06-04T04:59:07.784Z,100781.00
2018-06-04T05:01:37.009Z,100787.00
2018-06-04T05:04:06.255Z,100794.00
2018-06-04T05:06:35.486Z,100780.00
2018-06-04T05:09:07.840Z,100781.00
2018-06-04T05:11:37.275Z,100791.00
2018-06-04T05:14:06.467Z,100782.00
2018-06-04T05:16:35.766Z,100781.00
2018-06-04T05:19:05.009Z,100776.00
2018-06-04T05:21:34.229Z,100777.00
2018-06-04T05:24:03.469Z,100775.00
2018-06-04T05:26:32.713Z,100777.00
2018-06-04T05:29:05.153Z,100775.00
2018-06-04T05:31:34.273Z,100776.00
2018-06-04T05:34:03.573Z,100768.00
2018-06-04T05:36:32.748Z,100773.00
2018-06-04T05:39:01.971Z,100776.00
2018-06-04T05:41:31.147Z,100769.00
2018-06-04T05:44:00.369Z,100769.00
2018-06-04T05:46:29.610Z,100774.00
2018-06-04T05:48:58.807Z,100774.00
2018-06-04T05:51:27.985Z,100771.00
2018-06-04T05:53:57.187Z,100764.00
2018-06-04T05:56:26.380Z,100765.00
2018-06-04T05:58:55.582Z,100759.00
2018-06-04T06:01:24.806Z,100763.00
2018-06-04T06:03:54.007Z,100763.00
2018-06-04T06:06:23.174Z,100757.00
2018-06-04T06:08:52.345Z,100756.00
2018-06-04T06:11:21.614Z,100755.00
2018-06-04T06:13:50.824Z,100758.00
2018-06-04T06:16:20.100Z,100761.00
2018-06-04T06:18:49.381Z,100759.00
2018-06-04T06:21:18.738Z,100753.00
2018-06-04T06:23:48.026Z,100749.00
2018-06-04T06:26:17.502Z,100750.00
2018-06-04T06:28:46.797Z,100752.00
2018-06-04T06:31:16.066Z,100746.00
2018-06-04T06:33:45.400Z,100748.00
2018-06-04T06:36:14.791Z,100751.00
2018-06-04T06:38:44.072Z,100740.00
2018-06-04T06:41:13.313Z,100742.00
2018-06-04T06:43:42.572Z,100736.00
2018-06-04T06:46:11.779Z,100740.00
2018-06-04T06:48:41.076Z,100738.00
2018-06-04T06:51:10.329Z,100733.00
2018-06-04T06:53:39.577Z,100741.00
2018-06-04T06:56:08.895Z,100740.00
2018-06-04T06:58:38.282Z,100742.00
2018-06-04T07:01:08.075Z,100738.00
2018-06-04T07:03:37.477Z,100738.00
2018-06-04T07:06:06.712Z,100735.00
2018-06-04T07:08:36.038Z,100731.00
2018-06-04T07:11:06.005Z,100731.00
2018-06-04T07:13:35.275Z,100726.00
2018-06-04T07:16:04.574Z,100724.00
2018-06-04T07:18:33.871Z,100722.00
2018-06-04T07:21:03.076Z,100723.00
2018-06-04T07:23:32.342Z,100725.00
2018-06-04T07:26:01.654Z,100728.00
2018-06-04T07:28:31.006Z,100725.00
2018-06-04T07:31:02.828Z,100726.00
2018-06-04T07:33:32.018Z,100719.00
2018-06-04T07:36:11.386Z,100717.00
2018-06-04T07:38:41.276Z,100715.00
2018-06-04T07:41:10.583Z,100720.00
2018-06-04T07:43:39.761Z,100721.00
2018-06-04T07:46:08.974Z,100723.00
2018-06-04T07:48:38.199Z,100723.00
2018-06-04T07:51:08.581Z,100723.00
2018-06-04T07:53:37.821Z,100732.00
2018-06-04T07:56:07.040Z,100725.00
2018-06-04T07:58:36.353Z,100722.00
2018-06-04T08:01:05.595Z,100712.00
2018-06-04T08:03:34.819Z,100711.00
2018-06-04T08:06:04.145Z,100717.00
2018-06-04T08:08:33.419Z,100707.00
2018-06-04T08:11:02.776Z,100710.00
2018-06-04T08:13:32.014Z,100706.00
2018-06-04T08:16:01.296Z,100713.00
2018-06-04T08:18:30.638Z,100699.00
2018-06-04T08:20:59.928Z,100701.00
2018-06-04T08:23:29.165Z,100699.00
2018-06-04T08:25:58.390Z,100693.00
2018-06-04T08:28:27.675Z,100697.00
2018-06-04T08:30:57.018Z,100697.00
2018-06-04T08:33:26.370Z,100701.00
2018-06-04T08:35:55.641Z,100695.00
2018-06-04T08:43:12.273Z,100701.00
2018-06-04T08:45:41.485Z,100694.00
2018-06-04T08:48:10.673Z,100697.00
2018-06-04T08:50:39.900Z,100691.00
2018-06-04T08:53:09.083Z,100686.00
2018-06-04T08:55:38.299Z,100693.00
2018-06-04T08:58:07.730Z,100700.00
2018-06-04T09:00:36.998Z,100691.00
2018-06-04T09:03:06.148Z,100701.00
2018-06-04T09:05:35.431Z,100698.00
2018-06-04T09:08:05.118Z,100698.00
2018-06-04T09:10:34.419Z,100692.00
2018-06-04T09:13:03.701Z,100689.00
2018-06-04T09:15:32.924Z,100687.00
2018-06-04T09:18:02.121Z,100681.00
2018-06-04T09:20:31.475Z,100684.00
2018-06-04T09:23:00.723Z,100680.00
2018-06-04T09:25:29.971Z,100682.00
2018-06-04T09:27:59.165Z,100674.00
2018-06-04T09:30:28.454Z,100667.00
2018-06-04T09:32:57.702Z,100678.00
2018-06-04T09:35:27.605Z,100678.00
2018-06-04T09:37:57.041Z,100677.00
2018-06-04T09:40:26.309Z,100679.00
2018-06-04T09:42:55.503Z,100677.00
2018-06-04T09:45:24.828Z,100670.00
2018-06-04T09:47:53.824Z,100670.00
2018-06-04T09:50:23.102Z,100666.00
2018-06-04T09:52:52.438Z,100671.00
2018-06-04T09:55:21.731Z,100669.00
2018-06-04T09:57:50.999Z,100661.00
2018-06-04T10:00:25.623Z,100658.00
2018-06-04T10:02:54.900Z,100659.00
2018-06-04T10:05:24.102Z,100665.00
2018-06-04T10:07:53.443Z,100655.00
2018-06-04T10:10:22.818Z,100651.00
2018-06-04T10:12:52.182Z,100657.00
2018-06-04T10:15:21.418Z,100655.00
2018-06-04T10:17:50.774Z,100649.00
2018-06-04T10:20:20.255Z,100651.00
2018-06-04T10:22:49.656Z,100645.00
2018-06-04T10:25:18.846Z,100644.00
2018-06-04T10:27:48.180Z,100650.00
2018-06-04T10:30:18.417Z,100648.00
2018-06-04T10:32:47.647Z,100643.00
2018-06-04T10:35:16.984Z,100640.00
2018-06-04T10:37:47.678Z,100640.00
2018-06-04T10:40:17.982Z,100642.00
2018-06-04T10:42:47.284Z,100631.00
2018-06-04T10:45:16.750Z,100634.00
2018-06-04T10:47:45.999Z,100638.00
2018-06-04T10:50:15.158Z,100634.00
2018-06-04T10:52:44.411Z,100636.00
2018-06-04T10:55:13.716Z,100623.00
2018-06-04T10:57:43.439Z,100621.00
2018-06-04T11:00:12.670Z,100619.00
2018-06-04T11:02:43.495Z,100617.00
2018-06-04T11:05:12.842Z,100620.00
2018-06-04T11:07:42.064Z,100620.00
2018-06-04T11:10:11.273Z,100616.00
2018-06-04T11:12:40.417Z,100609.00
2018-06-04T11:15:09.698Z,100605.00
2018-06-04T11:17:38.899Z,100608.00
2018-06-04T11:20:08.135Z,100606.00
2018-06-04T11:22:37.345Z,100604.00
2018-06-04T11:25:06.631Z,100594.00
2018-06-04T11:27:35.873Z,100600.00
2018-06-04T11:30:05.600Z,100598.00
2018-06-04T11:32:34.851Z,100594.00
2018-06-04T11:35:04.159Z,100592.00
2018-06-04T11:37:33.461Z,100599.00
2018-06-04T11:40:02.783Z,100591.00
2018-06-04T11:42:32.357Z,100601.00
2018-06-04T11:45:01.766Z,100594.00
2018-06-04T11:47:31.100Z,100592.00
2018-06-04T11:50:00.325Z,100588.00
2018-06-04T11:52:29.585Z,100595.00
2018-06-04T11:54:58.766Z,100598.00
2018-06-04T11:57:28.047Z,100599.00
2018-06-04T11:59:57.303Z,100583.00
2018-06-04T12:02:27.329Z,100579.00
2018-06-04T12:04:56.697Z,100582.00
2018-06-04T12:07:26.893Z,100575.00
2018-06-04T12:09:56.296Z,100586.00
2018-06-04T12:12:26.160Z,100574.00
2018-06-04T12:14:56.027Z,100588.00
2018-06-04T12:17:25.385Z,100594.00
2018-06-04T12:19:55.342Z,100589.00
2018-06-04T12:22:24.609Z,100579.00
2018-06-04T12:24:53.842Z,100583.00
2018-06-04T12:27:23.035Z,100566.00
2018-06-04T12:29:52.314Z,100569.00
2018-06-04T12:32:21.553Z,100573.00
2018-06-04T12:34:50.861Z,100579.00
2018-06-04T12:37:20.016Z,100576.00
2018-06-04T12:39:49.336Z,100572.00
2018-06-04T12:42:18.702Z,100558.00
2018-06-04T12:44:47.989Z,100561.00
2018-06-04T12:47:17.292Z,100566.00
2018-06-04T12:49:47.530Z,100552.00
2018-06-04T12:52:17.315Z,100557.00
2018-06-04T12:54:46.822Z,100553.00
2018-06-04T12:57:16.129Z,100549.00
2018-06-04T12:59:46.320Z,100538.00
2018-06-04T13:02:15.693Z,100537.00
2018-06-04T13:04:44.947Z,100540.00
2018-06-04T13:07:14.300Z,100534.00
2018-06-04T13:09:43.627Z,100545.00
2018-06-04T13:12:12.922Z,100540.00
2018-06-04T13:14:42.272Z,100550.00
2018-06-04T13:17:11.764Z,100544.00
2018-06-04T13:19:41.092Z,100544.00
2018-06-04T13:22:10.520Z,100534.00
2018-06-04T13:24:40.583Z,100536.00
2018-06-04T13:27:09.882Z,100526.00
2018-06-04T13:29:39.129Z,100534.00
2018-06-04T13:32:08.558Z,100519.00
2018-06-04T13:34:38.075Z,100516.00
2018-06-04T13:37:07.406Z,100509.00
2018-06-04T13:39:36.778Z,100496.00
2018-06-04T13:42:06.090Z,100493.00
2018-06-04T13:44:35.447Z,100506.00
2018-06-04T13:47:05.058Z,100503.00
2018-06-04T13:49:34.330Z,100504.00
2018-06-04T13:52:03.549Z,100511.00
2018-06-04T13:54:32.725Z,100505.00
2018-06-04T13:57:02.022Z,100501.00
2018-06-04T14:01:39.797Z,100501.00
2018-06-04T14:04:09.043Z,100497.00
2018-06-04T14:06:38.397Z,100495.00
2018-06-04T14:09:08.804Z,100482.00
2018-06-04T14:11:38.062Z,100486.00
2018-06-04T14:14:07.290Z,100485.00
2018-06-04T14:16:36.604Z,100481.00
2018-06-04T14:19:06.093Z,100475.00
2018-06-04T14:21:35.353Z,100462.00
2018-06-04T14:24:04.569Z,100459.00
2018-06-04T14:26:33.757Z,100451.00
2018-06-04T14:29:03.030Z,100450.00
2018-06-04T14:31:32.313Z,100448.00
2018-06-04T14:34:01.546Z,100445.00
2018-06-04T14:36:30.720Z,100447.00
2018-06-04T14:38:59.984Z,100453.00
2018-06-04T14:41:29.162Z,100452.00
2018-06-04T14:43:58.461Z,100446.00
2018-06-04T14:46:27.784Z,100435.00
2018-06-04T14:48:57.049Z,100445.00
2018-06-04T14:51:26.286Z,100449.00
2018-06-04T14:53:55.551Z,100448.00
2018-06-04T14:56:24.716Z,100439.00
2018-06-04T14:58:53.914Z,100445.00
2018-06-04T15:01:23.164Z,100449.00
2018-06-04T15:03:52.453Z,100446.00
2018-06-04T15:06:21.724Z,100439.00
2018-06-04T15:08:51.204Z,100431.00
2018-06-04T15:11:20.473Z,100436.00
2018-06-04T15:13:49.788Z,100431.00
2018-06-04T15:16:19.058Z,100421.00
2018-06-04T15:18:48.250Z,100437.00
2018-06-04T15:21:17.434Z,100429.00
2018-06-04T15:23:46.608Z,100423.00
2018-06-04T15:26:15.886Z,100430.00
2018-06-04T15:28:45.016Z,100432.00
2018-06-04T15:31:14.213Z,100427.00
2018-06-04T15:33:43.381Z,100426.00
2018-06-04T15:36:12.594Z,100419.00
2018-06-04T15:38:41.744Z,100421.00
2018-06-04T15:41:11.058Z,100417.00
2018-06-04T15:43:40.232Z,100425.00
2018-06-04T15:46:09.416Z,100423.00
2018-06-04T15:48:38.594Z,100423.00
2018-06-04T15:51:07.847Z,100418.00
2018-06-04T15:53:37.070Z,100416.00
2018-06-04T15:56:06.374Z,100417.00
2018-06-04T15:58:35.646Z,100417.00
2018-06-04T16:01:04.855Z,100412.00
2018-06-04T16:03:33.998Z,100405.00
2018-06-04T16:06:03.502Z,100404.00
2018-06-04T16:08:32.727Z,100396.00
2018-06-04T16:11:02.445Z,100399.00
2018-06-04T16:13:31.645Z,100405.00
2018-06-04T16:16:00.865Z,100390.00
2018-06-04T16:18:30.747Z,100389.00
2018-06-04T16:21:00.899Z,100386.00
2018-06-04T16:23:30.456Z,100388.00
2018-06-04T16:25:59.914Z,100389.00
2018-06-04T16:28:29.354Z,100381.00
2018-06-04T16:30:58.555Z,100381.00
2018-06-04T16:33:27.811Z,100377.00
2018-06-04T16:35:57.015Z,100382.00
2018-06-04T16:38:26.271Z,100380.00
2018-06-04T16:40:55.568Z,100381.00
2018-06-04T16:43:24.882Z,100386.00
2018-06-04T16:45:54.671Z,100382.00
2018-06-04T16:48:23.917Z,100379.00
2018-06-04T16:50:53.157Z,100382.00
2018-06-04T16:53:22.453Z,100370.00
2018-06-04T16:55:51.709Z,100375.00
2018-06-04T16:58:20.935Z,100374.00
2018-06-04T17:00:50.385Z,100369.00
2018-06-04T17:03:19.669Z,100362.00
2018-06-04T17:05:48.908Z,100363.00
2018-06-04T17:08:18.210Z,100365.00
2018-06-04T17:10:47.372Z,100365.00
2018-06-04T17:13:16.712Z,100361.00
2018-06-04T17:15:45.903Z,100358.00
2018-06-04T17:18:15.132Z,100362.00
2018-06-04T17:20:44.569Z,100359.00
2018-06-04T17:23:13.780Z,100358.00
2018-06-04T17:25:42.987Z,100360.00
2018-06-04T17:28:12.189Z,100355.00
2018-06-04T17:30:41.416Z,100356.00
2018-06-04T17:33:10.726Z,100359.00
2018-06-04T17:35:40.051Z,100361.00
2018-06-04T17:38:09.341Z,100353.00
2018-06-04T17:40:38.649Z,100354.00
2018-06-04T17:43:08.019Z,100357.00
2018-06-04T17:45:37.329Z,100362.00
2018-06-04T17:48:06.357Z,100356.00
2018-06-04T17:50:35.563Z,100354.00
2018-06-04T17:53:04.812Z,100361.00
2018-06-04T17:55:34.182Z,100355.00
2018-06-04T17:58:03.433Z,100354.00
2018-06-04T18:00:32.753Z,100353.00
2018-06-04T18:03:02.232Z,100351.00
2018-06-04T18:05:31.537Z,100352.00
2018-06-04T18:08:00.850Z,100352.00
2018-06-04T18:10:30.099Z,100362.00
2018-06-04T18:12:59.349Z,100357.00
2018-06-04T18:15:28.716Z,100353.00
2018-06-04T18:17:58.092Z,100354.00
2018-06-04T18:20:27.771Z,100351.00
2018-06-04T18:22:57.035Z,100349.00
2018-06-04T18:25:26.636Z,100344.00
2018-06-04T18:27:55.957Z,100347.00
2018-06-04T18:30:25.172Z,100352.00
2018-06-04T18:32:54.459Z,100340.00
2018-06-04T18:35:23.702Z,100336.00
2018-06-04T18:37:53.263Z,100335.00
2018-06-04T18:40:22.504Z,100340.00
2018-06-04T18:42:51.707Z,100344.00
2018-06-04T18:45:20.942Z,100343.00
2018-06-04T18:47:50.184Z,100338.00
2018-06-04T18:50:19.469Z,100340.00
2018-06-04T18:52:48.644Z,100338.00
2018-06-04T18:55:17.930Z,100345.00
2018-06-04T18:57:47.034Z,100342.00
2018-06-04T19:00:16.344Z,100345.00
2018-06-04T19:02:45.637Z,100343.00
2018-06-04T19:05:15.028Z,100337.00
2018-06-04T19:07:44.396Z,100344.00
2018-06-04T19:10:13.600Z,100338.00
2018-06-04T19:12:43.733Z,100343.00
2018-06-04T19:15:12.993Z,100344.00
2018-06-04T19:17:42.317Z,100348.00
2018-06-04T19:20:11.491Z,100355.00
2018-06-04T19:22:40.814Z,100349.00
2018-06-04T19:25:10.066Z,100354.00
2018-06-04T19:27:39.340Z,100359.00
2018-06-04T19:30:08.582Z,100355.00
2018-06-04T19:32:37.916Z,100360.00
2018-06-04T19:35:07.254Z,100365.00
2018-06-04T19:37:36.561Z,100369.00
2018-06-04T19:40:06.178Z,100374.00
2018-06-04T19:42:35.459Z,100372.00
2018-06-04T19:45:04.804Z,100377.00
2018-06-04T19:47:34.094Z,100379.00
2018-06-04T19:50:03.560Z,100381.00
2018-06-04T19:52:32.820Z,100380.00
2018-06-04T19:55:02.099Z,100390.00
2018-06-04T19:57:31.410Z,100386.00
2018-06-04T20:00:00.656Z,100389.00
2018-06-04T20:02:29.919Z,100392.00
2018-06-04T20:04:59.336Z,100397.00
2018-06-04T20:07:28.584Z,100401.00
2018-06-04T20:09:57.854Z,100396.00
2018-06-04T20:12:27.214Z,100401.00
2018-06-04T20:14:56.519Z,100402.00
2018-06-04T20:17:25.781Z,100409.00
2018-06-04T20:19:55.027Z,100402.00
2018-06-04T20:22:24.399Z,100405.00
2018-06-04T20:24:53.616Z,100409.00
2018-06-04T20:27:22.973Z,100411.00
2018-06-04T20:29:52.256Z,100418.00
2018-06-04T20:32:21.653Z,100413.00
2018-06-04T20:34:50.865Z,100415.00
2018-06-04T20:37:20.103Z,100411.00
2018-06-04T20:39:49.293Z,100424.00
2018-06-04T20:42:18.800Z,100422.00
2018-06-04T20:44:47.999Z,100426.00
2018-06-04T20:47:18.099Z,100427.00
2018-06-04T20:49:47.600Z,100431.00
2018-06-04T20:52:16.886Z,100425.00
2018-06-04T20:54:46.086Z,100445.00
2018-06-04T20:57:15.249Z,100439.00
2018-06-04T20:59:44.546Z,100437.00
2018-06-04T21:02:13.780Z,100440.00
2018-06-04T21:04:43.040Z,100438.00
2018-06-04T21:07:14.104Z,100443.00
2018-06-04T21:09:44.699Z,100451.00
2018-06-04T21:12:13.952Z,100441.00
2018-06-04T21:14:43.533Z,100446.00
2018-06-04T21:17:12.705Z,100445.00
2018-06-04T21:19:41.663Z,100439.00
2018-06-04T21:22:10.940Z,100445.00
2018-06-04T21:24:40.150Z,100446.00
2018-06-04T21:27:09.397Z,100453.00
2018-06-04T21:29:38.624Z,100454.00
2018-06-04T21:32:07.789Z,100449.00
2018-06-04T21:34:36.925Z,100449.00
2018-06-04T21:37:06.442Z,100451.00
2018-06-04T21:39:35.608Z,100448.00
2018-06-04T21:42:04.872Z,100456.00
2018-06-04T21:44:34.013Z,100450.00
2018-06-04T21:47:03.182Z,100461.00
2018-06-04T21:49:32.409Z,100457.00
2018-06-04T21:52:02.189Z,100458.00
2018-06-04T21:54:31.972Z,100471.00
2018-06-04T21:57:01.283Z,100475.00
2018-06-04T21:59:30.469Z,100471.00
2018-06-04T22:01:59.831Z,100478.00
2018-06-04T22:04:29.273Z,100486.00
2018-06-04T22:06:59.041Z,100493.00
2018-06-04T22:09:28.439Z,100489.00
2018-06-04T22:11:57.652Z,100499.00
2018-06-04T22:14:27.118Z,100490.00
2018-06-04T22:16:57.010Z,100496.00
2018-06-04T22:19:26.234Z,100488.00
2018-06-04T22:21:55.501Z,100494.00
2018-06-04T22:24:25.801Z,100499.00
2018-06-04T22:26:54.959Z,100491.00
2018-06-04T22:29:24.141Z,100495.00
2018-06-04T22:31:53.351Z,100499.00
2018-06-04T22:34:22.477Z,100500.00
2018-06-04T22:36:52.633Z,100505.00
2018-06-04T22:39:21.789Z,100495.00
2018-06-04T22:41:51.029Z,100497.00
2018-06-04T22:44:20.465Z,100499.00
2018-06-04T22:46:49.655Z,100505.00
2018-06-04T22:49:18.880Z,100497.00
2018-06-04T22:51:48.096Z,100502.00
2018-06-04T22:54:17.320Z,100502.00
2018-06-04T22:56:46.489Z,100514.00
2018-06-04T22:59:15.642Z,100512.00
2018-06-04T23:01:44.846Z,100498.00
2018-06-04T23:04:14.195Z,100505.00
2018-06-04T23:06:43.391Z,100505.00
2018-06-04T23:09:13.405Z,100499.00
2018-06-04T23:11:42.578Z,100507.00
2018-06-04T23:14:11.791Z,100505.00
2018-06-04T23:16:40.980Z,100515.00
2018-06-04T23:19:10.174Z,100516.00
2018-06-04T23:21:39.297Z,100511.00
2018-06-04T23:24:08.489Z,100498.00
2018-06-04T23:26:37.699Z,100501.00
2018-06-04T23:29:07.052Z,100511.00
2018-06-04T23:31:36.262Z,100513.00
2018-06-04T23:34:05.499Z,100513.00
2018-06-04T23:36:34.661Z,100510.00
2018-06-04T23:39:05.703Z,100510.00
2018-06-04T23:41:34.875Z,100514.00
2018-06-04T23:44:04.095Z,100512.00
2018-06-04T23:46:33.359Z,100509.00
2018-06-04T23:49:02.550Z,100511.00
2018-06-04T23:51:31.741Z,100512.00
2018-06-04T23:54:00.954Z,100516.00
2018-06-04T23:56:30.178Z,100515.00
2018-06-04T23:59:00.376Z,100516.00
